sensor_id;sensor_type;location;lat;lon;timestamp;P1;durP1;ratioP1;P2;durP2;ratioP2
76986;SDS011;65922;50.086;8.598;2023-11-19T00:00:44;1.3;;;3.4;;
76986;SDS011;65922;50.086;8.598;2023-11-19T00:01:44;1.6;;;4;;
76986;SDS011;65922;50.086;8.598;2023-11-19T00:02:45;1.4;;;2.4;;
76986;SDS011;65922;50.086;8.598;2023-11-19T00:03:46;1.8;;;2.5;;
76986;SDS011;65922;50.086;8.598;2023-11-19T00:04:44;2.8;;;5.6;;
76986;SDS011;65922;50.086;8.598;2023-11-19T00:05:44;2.2;;;2.9;;
76986;SDS011;65922;50.086;8.598;2023-11-19T00:06:44;2.1;;;4.7;;
76986;SDS011;65922;50.086;8.598;2023-11-19T00:07:44;3;;;8.8;;
76986;SDS011;65922;50.086;8.598;2023-11-19T00:08:44;3.3;;;7;;
76986;SDS011;65922;50.086;8.598;2023-11-19T00:09:44;5.1;;;6.1;;
76986;SDS011;65922;50.086;8.598;2023-11-19T00:10:44;2.7;;;5;;
76986;SDS011;65922;50.086;8.598;2023-11-19T00:11:44;3.1;;;4.3;;
76986;SDS011;65922;50.086;8.598;2023-11-19T00:12:45;2.6;;;2.8;;
76986;SDS011;65922;50.086;8.598;2023-11-19T00:13:44;3.4;;;4.1;;
76986;SDS011;65922;50.086;8.598;2023-11-19T00:14:44;4.6;;;5.3;;
76986;SDS011;65922;50.086;8.598;2023-11-19T00:15:44;2.2;;;5.6;;
76986;SDS011;65922;50.086;8.598;2023-11-19T00:16:44;2.9;;;3.8;;
76986;SDS011;65922;50.086;8.598;2023-11-19T00:17:44;1.7;;;4.5;;
76986;SDS011;65922;50.086;8.598;2023-11-19T00:18:44;2.3;;;3.5;;
76986;SDS011;65922;50.086;8.598;2023-11-19T00:19:44;2.7;;;4.4;;
76986;SDS011;65922;50.086;8.598;2023-11-19T00:20:44;3.2;;;5.9;;
76986;SDS011;65922;50.086;8.598;2023-11-19T00:21:44;2.8;;;4;;
76986;SDS011;65922;50.086;8.598;2023-11-19T00:22:44;2.7;;;4.7;;
76986;SDS011;65922;50.086;8.598;2023-11-19T00:23:44;2.2;;;2.6;;
76986;SDS011;65922;50.086;8.598;2023-11-19T00:24:44;2.8;;;7;;
76986;SDS011;65922;50.086;8.598;2023-11-19T00:25:44;3.6;;;7.4;;
76986;SDS011;65922;50.086;8.598;2023-11-19T00:26:44;2.9;;;5.9;;
76986;SDS011;65922;50.086;8.598;2023-11-19T00:27:44;3;;;10;;
76986;SDS011;65922;50.086;8.598;2023-11-19T00:28:44;2.4;;;6.9;;
76986;SDS011;65922;50.086;8.598;2023-11-19T00:29:44;3.3;;;6.1;;
76986;SDS011;65922;50.086;8.598;2023-11-19T00:30:44;2.9;;;4;;
76986;SDS011;65922;50.086;8.598;2023-11-19T00:31:44;3.3;;;5.6;;
76986;SDS011;65922;50.086;8.598;2023-11-19T00:32:44;3.5;;;6.6;;
76986;SDS011;65922;50.086;8.598;2023-11-19T00:33:44;3.4;;;7;;
76986;SDS011;65922;50.086;8.598;2023-11-19T00:34:44;3.3;;;6.7;;
76986;SDS011;65922;50.086;8.598;2023-11-19T00:35:44;3.4;;;5.2;;
76986;SDS011;65922;50.086;8.598;2023-11-19T00:36:44;3.3;;;7.4;;
76986;SDS011;65922;50.086;8.598;2023-11-19T00:37:44;4.1;;;7.8;;
76986;SDS011;65922;50.086;8.598;2023-11-19T00:38:44;2.6;;;7;;
76986;SDS011;65922;50.086;8.598;2023-11-19T00:39:44;3.5;;;5.1;;
76986;SDS011;65922;50.086;8.598;2023-11-19T00:40:44;2.4;;;4.8;;
76986;SDS011;65922;50.086;8.598;2023-11-19T00:41:44;2.2;;;3.4;;
76986;SDS011;65922;50.086;8.598;2023-11-19T00:42:44;3.3;;;5.9;;
76986;SDS011;65922;50.086;8.598;2023-11-19T00:43:44;6.1;;;8.5;;
76986;SDS011;65922;50.086;8.598;2023-11-19T00:44:44;1.7;;;3.2;;
76986;SDS011;65922;50.086;8.598;2023-11-19T00:45:44;3.1;;;5.7;;
76986;SDS011;65922;50.086;8.598;2023-11-19T00:46:45;2.6;;;4.7;;
76986;SDS011;65922;50.086;8.598;2023-11-19T00:47:44;2.2;;;5.1;;
76986;SDS011;65922;50.086;8.598;2023-11-19T00:48:44;2.7;;;7;;
76986;SDS011;65922;50.086;8.598;2023-11-19T00:49:44;3.1;;;6.3;;
76986;SDS011;65922;50.086;8.598;2023-11-19T00:50:44;3.4;;;5.5;;
76986;SDS011;65922;50.086;8.598;2023-11-19T00:51:44;2.1;;;5.1;;
76986;SDS011;65922;50.086;8.598;2023-11-19T00:52:44;3.4;;;5.9;;
76986;SDS011;65922;50.086;8.598;2023-11-19T00:53:44;3.8;;;7.4;;
76986;SDS011;65922;50.086;8.598;2023-11-19T00:54:44;3.3;;;5.5;;
76986;SDS011;65922;50.086;8.598;2023-11-19T00:55:44;3.5;;;5.9;;
76986;SDS011;65922;50.086;8.598;2023-11-19T00:56:44;3.8;;;8.2;;
76986;SDS011;65922;50.086;8.598;2023-11-19T00:57:44;2.5;;;4.6;;
76986;SDS011;65922;50.086;8.598;2023-11-19T00:58:44;3;;;3.9;;
76986;SDS011;65922;50.086;8.598;2023-11-19T00:59:44;4.9;;;8.6;;
76986;SDS011;65922;50.086;8.598;2023-11-19T01:00:44;4.3;;;8.1;;
76986;SDS011;65922;50.086;8.598;2023-11-19T01:01:44;3.9;;;8.1;;
76986;SDS011;65922;50.086;8.598;2023-11-19T01:02:44;3.3;;;5.7;;
76986;SDS011;65922;50.086;8.598;2023-11-19T01:03:44;2.7;;;6;;
76986;SDS011;65922;50.086;8.598;2023-11-19T01:04:44;3.1;;;8.9;;
76986;SDS011;65922;50.086;8.598;2023-11-19T01:05:44;4.7;;;9.8;;
76986;SDS011;65922;50.086;8.598;2023-11-19T01:06:44;4.1;;;9.6;;
76986;SDS011;65922;50.086;8.598;2023-11-19T01:07:44;3;;;7.4;;
76986;SDS011;65922;50.086;8.598;2023-11-19T01:08:44;4.6;;;8.4;;
76986;SDS011;65922;50.086;8.598;2023-11-19T01:09:44;2.6;;;8.4;;
76986;SDS011;65922;50.086;8.598;2023-11-19T01:10:44;3.5;;;5.4;;
76986;SDS011;65922;50.086;8.598;2023-11-19T01:11:44;3.2;;;6.3;;
76986;SDS011;65922;50.086;8.598;2023-11-19T01:12:44;2;;;3.2;;
76986;SDS011;65922;50.086;8.598;2023-11-19T01:13:44;4.4;;;7.6;;
76986;SDS011;65922;50.086;8.598;2023-11-19T01:14:44;3.7;;;6.3;;
76986;SDS011;65922;50.086;8.598;2023-11-19T01:15:44;4.5;;;8.7;;
76986;SDS011;65922;50.086;8.598;2023-11-19T01:16:44;5.9;;;14.9;;
76986;SDS011;65922;50.086;8.598;2023-11-19T01:17:44;4.1;;;7.7;;
76986;SDS011;65922;50.086;8.598;2023-11-19T01:18:44;3.1;;;5.9;;
76986;SDS011;65922;50.086;8.598;2023-11-19T01:19:44;3.2;;;4.2;;
76986;SDS011;65922;50.086;8.598;2023-11-19T01:20:44;4.4;;;6.4;;
76986;SDS011;65922;50.086;8.598;2023-11-19T01:21:44;3;;;6.8;;
76986;SDS011;65922;50.086;8.598;2023-11-19T01:22:44;4.1;;;5.4;;
76986;SDS011;65922;50.086;8.598;2023-11-19T01:23:44;3.9;;;6.3;;
76986;SDS011;65922;50.086;8.598;2023-11-19T01:24:44;2.1;;;4.5;;
76986;SDS011;65922;50.086;8.598;2023-11-19T01:25:44;3.2;;;6.4;;
76986;SDS011;65922;50.086;8.598;2023-11-19T01:26:44;3.7;;;11.5;;
76986;SDS011;65922;50.086;8.598;2023-11-19T01:27:44;4;;;6.6;;
76986;SDS011;65922;50.086;8.598;2023-11-19T01:28:44;3.7;;;7.2;;
76986;SDS011;65922;50.086;8.598;2023-11-19T01:29:44;4.4;;;9.9;;
76986;SDS011;65922;50.086;8.598;2023-11-19T01:30:44;3.5;;;7.3;;
76986;SDS011;65922;50.086;8.598;2023-11-19T01:31:45;4;;;8.2;;
76986;SDS011;65922;50.086;8.598;2023-11-19T01:32:44;3.4;;;6.7;;
76986;SDS011;65922;50.086;8.598;2023-11-19T01:33:45;2.2;;;4.6;;
76986;SDS011;65922;50.086;8.598;2023-11-19T01:34:45;3.2;;;6.5;;
76986;SDS011;65922;50.086;8.598;2023-11-19T01:35:44;2.6;;;4.5;;
76986;SDS011;65922;50.086;8.598;2023-11-19T01:36:44;3.6;;;7.3;;
76986;SDS011;65922;50.086;8.598;2023-11-19T01:37:44;3.4;;;6.9;;
76986;SDS011;65922;50.086;8.598;2023-11-19T01:38:44;3.6;;;7.8;;
76986;SDS011;65922;50.086;8.598;2023-11-19T01:39:44;3.2;;;6.9;;
76986;SDS011;65922;50.086;8.598;2023-11-19T01:40:44;2.1;;;3.1;;
76986;SDS011;65922;50.086;8.598;2023-11-19T01:41:44;3.8;;;7.5;;
76986;SDS011;65922;50.086;8.598;2023-11-19T01:42:44;4;;;5.8;;
76986;SDS011;65922;50.086;8.598;2023-11-19T01:43:44;3.1;;;6.5;;
76986;SDS011;65922;50.086;8.598;2023-11-19T01:44:54;3.9;;;7.8;;
76986;SDS011;65922;50.086;8.598;2023-11-19T01:45:44;3.4;;;5.9;;
76986;SDS011;65922;50.086;8.598;2023-11-19T01:46:44;3;;;4.3;;
76986;SDS011;65922;50.086;8.598;2023-11-19T01:47:44;3.3;;;6.4;;
76986;SDS011;65922;50.086;8.598;2023-11-19T01:48:44;2.7;;;5;;
76986;SDS011;65922;50.086;8.598;2023-11-19T01:49:44;3.5;;;5.5;;
76986;SDS011;65922;50.086;8.598;2023-11-19T01:50:44;2.7;;;8.5;;
76986;SDS011;65922;50.086;8.598;2023-11-19T01:51:44;0.6;;;1.9;;
76986;SDS011;65922;50.086;8.598;2023-11-19T01:52:44;2.6;;;4.7;;
76986;SDS011;65922;50.086;8.598;2023-11-19T01:53:44;2.9;;;5.1;;
76986;SDS011;65922;50.086;8.598;2023-11-19T01:54:44;2.6;;;4.5;;
76986;SDS011;65922;50.086;8.598;2023-11-19T01:55:44;3.6;;;6.2;;
76986;SDS011;65922;50.086;8.598;2023-11-19T01:56:44;3.5;;;6.9;;
76986;SDS011;65922;50.086;8.598;2023-11-19T01:57:44;2.1;;;3.1;;
76986;SDS011;65922;50.086;8.598;2023-11-19T01:58:44;3.6;;;8.2;;
76986;SDS011;65922;50.086;8.598;2023-11-19T01:59:46;1.7;;;5;;
76986;SDS011;65922;50.086;8.598;2023-11-19T02:00:45;2.6;;;4.2;;
76986;SDS011;65922;50.086;8.598;2023-11-19T02:01:44;3.2;;;5.5;;
76986;SDS011;65922;50.086;8.598;2023-11-19T02:02:44;2.7;;;6.5;;
76986;SDS011;65922;50.086;8.598;2023-11-19T02:03:44;2.3;;;4.4;;
76986;SDS011;65922;50.086;8.598;2023-11-19T02:04:46;2.6;;;6.1;;
76986;SDS011;65922;50.086;8.598;2023-11-19T02:05:44;1.9;;;3.8;;
76986;SDS011;65922;50.086;8.598;2023-11-19T02:06:44;1.7;;;3.1;;
76986;SDS011;65922;50.086;8.598;2023-11-19T02:07:44;2.4;;;4.7;;
76986;SDS011;65922;50.086;8.598;2023-11-19T02:08:44;2.3;;;5.6;;
76986;SDS011;65922;50.086;8.598;2023-11-19T02:09:44;2.9;;;9.6;;
76986;SDS011;65922;50.086;8.598;2023-11-19T02:10:44;2.1;;;4;;
76986;SDS011;65922;50.086;8.598;2023-11-19T02:11:44;2.1;;;3.6;;
76986;SDS011;65922;50.086;8.598;2023-11-19T02:12:44;2.8;;;6.7;;
76986;SDS011;65922;50.086;8.598;2023-11-19T02:13:44;2.8;;;8.8;;
76986;SDS011;65922;50.086;8.598;2023-11-19T02:14:44;2.3;;;3.3;;
76986;SDS011;65922;50.086;8.598;2023-11-19T02:15:44;1.7;;;3.4;;
76986;SDS011;65922;50.086;8.598;2023-11-19T02:16:44;2.4;;;7.3;;
76986;SDS011;65922;50.086;8.598;2023-11-19T02:17:44;1.5;;;2.5;;
76986;SDS011;65922;50.086;8.598;2023-11-19T02:18:44;1.7;;;2.6;;
76986;SDS011;65922;50.086;8.598;2023-11-19T02:19:44;3.3;;;4.3;;
76986;SDS011;65922;50.086;8.598;2023-11-19T02:20:44;2.7;;;4;;
76986;SDS011;65922;50.086;8.598;2023-11-19T02:21:44;2.7;;;5.3;;
76986;SDS011;65922;50.086;8.598;2023-11-19T02:22:44;1.9;;;4.2;;
76986;SDS011;65922;50.086;8.598;2023-11-19T02:23:44;3.2;;;4.4;;
76986;SDS011;65922;50.086;8.598;2023-11-19T02:24:44;1.6;;;3.8;;
76986;SDS011;65922;50.086;8.598;2023-11-19T02:25:46;2.2;;;4;;
76986;SDS011;65922;50.086;8.598;2023-11-19T02:26:45;1.5;;;3.4;;
76986;SDS011;65922;50.086;8.598;2023-11-19T02:27:46;3.1;;;5.9;;
76986;SDS011;65922;50.086;8.598;2023-11-19T02:28:44;2.4;;;6.6;;
76986;SDS011;65922;50.086;8.598;2023-11-19T02:29:44;2.2;;;3.4;;
76986;SDS011;65922;50.086;8.598;2023-11-19T02:30:44;1.1;;;3.5;;
76986;SDS011;65922;50.086;8.598;2023-11-19T02:31:44;1;;;1.9;;
76986;SDS011;65922;50.086;8.598;2023-11-19T02:32:44;1.2;;;1.9;;
76986;SDS011;65922;50.086;8.598;2023-11-19T02:33:44;3.6;;;6.7;;
76986;SDS011;65922;50.086;8.598;2023-11-19T02:34:44;1.9;;;3.5;;
76986;SDS011;65922;50.086;8.598;2023-11-19T02:35:44;3;;;3.8;;
76986;SDS011;65922;50.086;8.598;2023-11-19T02:36:44;1.9;;;4.6;;
76986;SDS011;65922;50.086;8.598;2023-11-19T02:37:44;2.3;;;6;;
76986;SDS011;65922;50.086;8.598;2023-11-19T02:38:44;1.8;;;3.3;;
76986;SDS011;65922;50.086;8.598;2023-11-19T02:39:44;0.8;;;1.6;;
76986;SDS011;65922;50.086;8.598;2023-11-19T02:40:44;1.4;;;3.3;;
76986;SDS011;65922;50.086;8.598;2023-11-19T02:41:44;2.1;;;3.8;;
76986;SDS011;65922;50.086;8.598;2023-11-19T02:42:44;2.2;;;2.9;;
76986;SDS011;65922;50.086;8.598;2023-11-19T02:43:44;1.8;;;4.9;;
76986;SDS011;65922;50.086;8.598;2023-11-19T02:44:44;2.2;;;3.9;;
76986;SDS011;65922;50.086;8.598;2023-11-19T02:45:44;2.4;;;10.5;;
76986;SDS011;65922;50.086;8.598;2023-11-19T02:46:44;1.4;;;2.7;;
76986;SDS011;65922;50.086;8.598;2023-11-19T02:47:44;1.8;;;4.3;;
76986;SDS011;65922;50.086;8.598;2023-11-19T02:48:44;2.3;;;3.3;;
76986;SDS011;65922;50.086;8.598;2023-11-19T02:49:44;1.7;;;3.2;;
76986;SDS011;65922;50.086;8.598;2023-11-19T02:50:44;1.3;;;2.3;;
76986;SDS011;65922;50.086;8.598;2023-11-19T02:51:44;1.3;;;3.3;;
76986;SDS011;65922;50.086;8.598;2023-11-19T02:52:44;2.2;;;3.7;;
76986;SDS011;65922;50.086;8.598;2023-11-19T02:53:44;1.8;;;5;;
76986;SDS011;65922;50.086;8.598;2023-11-19T02:54:44;0.6;;;1.1;;
76986;SDS011;65922;50.086;8.598;2023-11-19T02:55:44;1.9;;;3.6;;
76986;SDS011;65922;50.086;8.598;2023-11-19T02:56:44;1.7;;;3.1;;
76986;SDS011;65922;50.086;8.598;2023-11-19T02:57:44;1.2;;;3.5;;
76986;SDS011;65922;50.086;8.598;2023-11-19T02:58:45;1.3;;;2.9;;
76986;SDS011;65922;50.086;8.598;2023-11-19T02:59:44;1.7;;;2.5;;
76986;SDS011;65922;50.086;8.598;2023-11-19T03:00:44;0.4;;;1.5;;
76986;SDS011;65922;50.086;8.598;2023-11-19T03:01:44;1.8;;;3.5;;
76986;SDS011;65922;50.086;8.598;2023-11-19T03:02:44;1.3;;;3.1;;
76986;SDS011;65922;50.086;8.598;2023-11-19T03:03:44;1.9;;;2.4;;
76986;SDS011;65922;50.086;8.598;2023-11-19T03:04:44;2;;;3.8;;
76986;SDS011;65922;50.086;8.598;2023-11-19T03:05:44;1.5;;;3.4;;
76986;SDS011;65922;50.086;8.598;2023-11-19T03:06:44;0.2;;;0.9;;
76986;SDS011;65922;50.086;8.598;2023-11-19T03:07:44;1.1;;;3.3;;
76986;SDS011;65922;50.086;8.598;2023-11-19T03:08:44;0.5;;;1.3;;
76986;SDS011;65922;50.086;8.598;2023-11-19T03:09:44;1.7;;;2.6;;
76986;SDS011;65922;50.086;8.598;2023-11-19T03:10:44;1.8;;;3.7;;
76986;SDS011;65922;50.086;8.598;2023-11-19T03:11:44;2;;;3.4;;
76986;SDS011;65922;50.086;8.598;2023-11-19T03:12:44;1.6;;;3.1;;
76986;SDS011;65922;50.086;8.598;2023-11-19T03:13:44;0.6;;;0.6;;
76986;SDS011;65922;50.086;8.598;2023-11-19T03:14:44;1.5;;;4.7;;
76986;SDS011;65922;50.086;8.598;2023-11-19T03:15:44;1.5;;;2.1;;
76986;SDS011;65922;50.086;8.598;2023-11-19T03:16:44;1.3;;;2.9;;
76986;SDS011;65922;50.086;8.598;2023-11-19T03:17:45;1.7;;;3.5;;
76986;SDS011;65922;50.086;8.598;2023-11-19T03:18:44;1.6;;;2.6;;
76986;SDS011;65922;50.086;8.598;2023-11-19T03:19:44;1.2;;;3;;
76986;SDS011;65922;50.086;8.598;2023-11-19T03:20:44;1.4;;;1.5;;
76986;SDS011;65922;50.086;8.598;2023-11-19T03:21:44;1.5;;;6.1;;
76986;SDS011;65922;50.086;8.598;2023-11-19T03:22:44;1.4;;;3.7;;
76986;SDS011;65922;50.086;8.598;2023-11-19T03:23:44;0.9;;;2.4;;
76986;SDS011;65922;50.086;8.598;2023-11-19T03:24:44;1.3;;;2;;
76986;SDS011;65922;50.086;8.598;2023-11-19T03:25:44;0.7;;;2.5;;
76986;SDS011;65922;50.086;8.598;2023-11-19T03:26:47;1.9;;;4.4;;
76986;SDS011;65922;50.086;8.598;2023-11-19T03:27:44;1;;;2.5;;
76986;SDS011;65922;50.086;8.598;2023-11-19T03:28:44;0.9;;;1.9;;
76986;SDS011;65922;50.086;8.598;2023-11-19T03:29:44;1.8;;;5.6;;
76986;SDS011;65922;50.086;8.598;2023-11-19T03:30:44;1.9;;;3.8;;
76986;SDS011;65922;50.086;8.598;2023-11-19T03:31:44;2.3;;;3.2;;
76986;SDS011;65922;50.086;8.598;2023-11-19T03:32:44;2.5;;;3.4;;
76986;SDS011;65922;50.086;8.598;2023-11-19T03:33:44;1.5;;;2.5;;
76986;SDS011;65922;50.086;8.598;2023-11-19T03:34:44;0.3;;;0.8;;
76986;SDS011;65922;50.086;8.598;2023-11-19T03:35:44;1.2;;;3.3;;
76986;SDS011;65922;50.086;8.598;2023-11-19T03:36:44;1.3;;;3.5;;
76986;SDS011;65922;50.086;8.598;2023-11-19T03:37:44;1.7;;;3;;
76986;SDS011;65922;50.086;8.598;2023-11-19T03:38:44;1.2;;;3.2;;
76986;SDS011;65922;50.086;8.598;2023-11-19T03:39:44;2.1;;;5.6;;
76986;SDS011;65922;50.086;8.598;2023-11-19T03:40:44;1.6;;;2.9;;
76986;SDS011;65922;50.086;8.598;2023-11-19T03:41:45;1.7;;;3;;
76986;SDS011;65922;50.086;8.598;2023-11-19T03:42:45;1.8;;;4.1;;
76986;SDS011;65922;50.086;8.598;2023-11-19T03:43:44;2.4;;;5.6;;
76986;SDS011;65922;50.086;8.598;2023-11-19T03:44:44;2;;;3.2;;
76986;SDS011;65922;50.086;8.598;2023-11-19T03:45:44;2.6;;;4;;
76986;SDS011;65922;50.086;8.598;2023-11-19T03:46:44;1.7;;;2.6;;
76986;SDS011;65922;50.086;8.598;2023-11-19T03:47:44;2.8;;;5.1;;
76986;SDS011;65922;50.086;8.598;2023-11-19T03:48:44;1.5;;;2.6;;
76986;SDS011;65922;50.086;8.598;2023-11-19T03:49:46;1.9;;;3.6;;
76986;SDS011;65922;50.086;8.598;2023-11-19T03:50:44;1.1;;;2.8;;
76986;SDS011;65922;50.086;8.598;2023-11-19T03:51:44;2.5;;;3.6;;
76986;SDS011;65922;50.086;8.598;2023-11-19T03:52:44;1.9;;;2.2;;
76986;SDS011;65922;50.086;8.598;2023-11-19T03:53:44;2;;;3.6;;
76986;SDS011;65922;50.086;8.598;2023-11-19T03:54:44;1.5;;;2.8;;
76986;SDS011;65922;50.086;8.598;2023-11-19T03:55:44;1.2;;;4.7;;
76986;SDS011;65922;50.086;8.598;2023-11-19T03:56:44;1.6;;;2;;
76986;SDS011;65922;50.086;8.598;2023-11-19T03:57:44;3.4;;;4.9;;
76986;SDS011;65922;50.086;8.598;2023-11-19T03:58:44;1.4;;;2;;
76986;SDS011;65922;50.086;8.598;2023-11-19T03:59:44;1.7;;;4.2;;
76986;SDS011;65922;50.086;8.598;2023-11-19T04:00:44;2.2;;;4;;
76986;SDS011;65922;50.086;8.598;2023-11-19T04:01:44;2;;;2.6;;
76986;SDS011;65922;50.086;8.598;2023-11-19T04:02:44;2.2;;;3.7;;
76986;SDS011;65922;50.086;8.598;2023-11-19T04:03:44;2.7;;;4.3;;
76986;SDS011;65922;50.086;8.598;2023-11-19T04:04:44;1;;;3;;
76986;SDS011;65922;50.086;8.598;2023-11-19T04:05:44;1.5;;;3.7;;
76986;SDS011;65922;50.086;8.598;2023-11-19T04:06:44;1.4;;;2.2;;
76986;SDS011;65922;50.086;8.598;2023-11-19T04:07:44;0.5;;;1.8;;
76986;SDS011;65922;50.086;8.598;2023-11-19T04:08:44;0.4;;;2.2;;
76986;SDS011;65922;50.086;8.598;2023-11-19T04:09:44;1.2;;;1.7;;
76986;SDS011;65922;50.086;8.598;2023-11-19T04:10:44;1.6;;;2.8;;
76986;SDS011;65922;50.086;8.598;2023-11-19T04:11:44;1.1;;;2.9;;
76986;SDS011;65922;50.086;8.598;2023-11-19T04:12:44;0.7;;;3.7;;
76986;SDS011;65922;50.086;8.598;2023-11-19T04:13:44;2.1;;;5.2;;
76986;SDS011;65922;50.086;8.598;2023-11-19T04:14:44;0.7;;;2.6;;
76986;SDS011;65922;50.086;8.598;2023-11-19T04:15:44;1.1;;;1.4;;
76986;SDS011;65922;50.086;8.598;2023-11-19T04:16:44;1.3;;;2.3;;
76986;SDS011;65922;50.086;8.598;2023-11-19T04:17:44;1.1;;;2.7;;
76986;SDS011;65922;50.086;8.598;2023-11-19T04:18:44;0.7;;;2;;
76986;SDS011;65922;50.086;8.598;2023-11-19T04:19:44;1.6;;;6.8;;
76986;SDS011;65922;50.086;8.598;2023-11-19T04:20:44;1.7;;;2;;
76986;SDS011;65922;50.086;8.598;2023-11-19T04:21:44;0.4;;;3.9;;
76986;SDS011;65922;50.086;8.598;2023-11-19T04:22:44;1.2;;;2.3;;
76986;SDS011;65922;50.086;8.598;2023-11-19T04:23:44;2.4;;;4.6;;
76986;SDS011;65922;50.086;8.598;2023-11-19T04:24:44;0.8;;;2.8;;
76986;SDS011;65922;50.086;8.598;2023-11-19T04:25:44;2.4;;;4.6;;
76986;SDS011;65922;50.086;8.598;2023-11-19T04:26:44;1;;;2.2;;
76986;SDS011;65922;50.086;8.598;2023-11-19T04:27:44;1.6;;;2;;
76986;SDS011;65922;50.086;8.598;2023-11-19T04:28:44;1.9;;;2.7;;
76986;SDS011;65922;50.086;8.598;2023-11-19T04:29:44;1.4;;;2.5;;
76986;SDS011;65922;50.086;8.598;2023-11-19T04:30:44;0.5;;;0.7;;
76986;SDS011;65922;50.086;8.598;2023-11-19T04:31:44;1.1;;;2.2;;
76986;SDS011;65922;50.086;8.598;2023-11-19T04:32:44;2.3;;;2.5;;
76986;SDS011;65922;50.086;8.598;2023-11-19T04:33:44;1.6;;;2;;
76986;SDS011;65922;50.086;8.598;2023-11-19T04:34:45;1;;;1.6;;
76986;SDS011;65922;50.086;8.598;2023-11-19T04:35:50;3.6;;;3.9;;
76986;SDS011;65922;50.086;8.598;2023-11-19T04:36:44;0.5;;;1.1;;
76986;SDS011;65922;50.086;8.598;2023-11-19T04:37:44;0.7;;;1.3;;
76986;SDS011;65922;50.086;8.598;2023-11-19T04:38:44;0.7;;;1.2;;
76986;SDS011;65922;50.086;8.598;2023-11-19T04:39:44;0.9;;;1.2;;
76986;SDS011;65922;50.086;8.598;2023-11-19T04:40:44;0.8;;;2.6;;
76986;SDS011;65922;50.086;8.598;2023-11-19T04:41:45;1;;;2.9;;
76986;SDS011;65922;50.086;8.598;2023-11-19T04:42:44;0.6;;;4.9;;
76986;SDS011;65922;50.086;8.598;2023-11-19T04:43:44;0.6;;;1.8;;
76986;SDS011;65922;50.086;8.598;2023-11-19T04:44:44;1.2;;;2.5;;
76986;SDS011;65922;50.086;8.598;2023-11-19T04:45:44;0.5;;;1.6;;
76986;SDS011;65922;50.086;8.598;2023-11-19T04:46:44;1.2;;;1.6;;
76986;SDS011;65922;50.086;8.598;2023-11-19T04:47:44;1.5;;;5;;
76986;SDS011;65922;50.086;8.598;2023-11-19T04:48:44;0.9;;;3.7;;
76986;SDS011;65922;50.086;8.598;2023-11-19T04:49:44;1.2;;;3.1;;
76986;SDS011;65922;50.086;8.598;2023-11-19T04:50:44;1.4;;;4.4;;
76986;SDS011;65922;50.086;8.598;2023-11-19T04:51:44;1.3;;;2.2;;
76986;SDS011;65922;50.086;8.598;2023-11-19T04:52:44;0.9;;;1.3;;
76986;SDS011;65922;50.086;8.598;2023-11-19T04:53:44;0.7;;;1.4;;
76986;SDS011;65922;50.086;8.598;2023-11-19T04:54:45;0.8;;;2.2;;
76986;SDS011;65922;50.086;8.598;2023-11-19T04:55:45;0.9;;;2.3;;
76986;SDS011;65922;50.086;8.598;2023-11-19T04:56:45;0.9;;;2.2;;
76986;SDS011;65922;50.086;8.598;2023-11-19T04:57:44;2.2;;;2.9;;
76986;SDS011;65922;50.086;8.598;2023-11-19T04:58:44;1.1;;;2.8;;
76986;SDS011;65922;50.086;8.598;2023-11-19T04:59:44;2.2;;;4.1;;
76986;SDS011;65922;50.086;8.598;2023-11-19T05:00:44;1.5;;;1.9;;
76986;SDS011;65922;50.086;8.598;2023-11-19T05:01:46;1.4;;;1.5;;
76986;SDS011;65922;50.086;8.598;2023-11-19T05:02:44;1.1;;;1.9;;
76986;SDS011;65922;50.086;8.598;2023-11-19T05:03:44;2;;;3.4;;
76986;SDS011;65922;50.086;8.598;2023-11-19T05:04:44;2.3;;;6.2;;
76986;SDS011;65922;50.086;8.598;2023-11-19T05:05:44;1.9;;;4.2;;
76986;SDS011;65922;50.086;8.598;2023-11-19T05:06:44;1.9;;;2.1;;
76986;SDS011;65922;50.086;8.598;2023-11-19T05:07:44;1.2;;;1.8;;
76986;SDS011;65922;50.086;8.598;2023-11-19T05:08:44;1.7;;;3;;
76986;SDS011;65922;50.086;8.598;2023-11-19T05:09:44;1.7;;;2.5;;
76986;SDS011;65922;50.086;8.598;2023-11-19T05:10:44;0.4;;;0.7;;
76986;SDS011;65922;50.086;8.598;2023-11-19T05:11:44;1.7;;;2.8;;
76986;SDS011;65922;50.086;8.598;2023-11-19T05:12:44;1;;;1.6;;
76986;SDS011;65922;50.086;8.598;2023-11-19T05:13:44;1.9;;;3.8;;
76986;SDS011;65922;50.086;8.598;2023-11-19T05:14:44;1.5;;;2.2;;
76986;SDS011;65922;50.086;8.598;2023-11-19T05:15:44;1.6;;;4.3;;
76986;SDS011;65922;50.086;8.598;2023-11-19T05:16:44;2.4;;;3.4;;
76986;SDS011;65922;50.086;8.598;2023-11-19T05:17:44;0.8;;;1.1;;
76986;SDS011;65922;50.086;8.598;2023-11-19T05:18:44;0.2;;;1.1;;
76986;SDS011;65922;50.086;8.598;2023-11-19T05:19:44;0.6;;;0.9;;
76986;SDS011;65922;50.086;8.598;2023-11-19T05:20:44;1.1;;;2.1;;
76986;SDS011;65922;50.086;8.598;2023-11-19T05:21:44;1.3;;;2.2;;
76986;SDS011;65922;50.086;8.598;2023-11-19T05:22:44;1.7;;;3.1;;
76986;SDS011;65922;50.086;8.598;2023-11-19T05:23:44;1.6;;;2.2;;
76986;SDS011;65922;50.086;8.598;2023-11-19T05:24:44;0.9;;;1.7;;
76986;SDS011;65922;50.086;8.598;2023-11-19T05:25:44;0.5;;;6.5;;
76986;SDS011;65922;50.086;8.598;2023-11-19T05:26:44;1.2;;;1.9;;
76986;SDS011;65922;50.086;8.598;2023-11-19T05:27:44;2.1;;;2.9;;
76986;SDS011;65922;50.086;8.598;2023-11-19T05:28:44;1.2;;;2.6;;
76986;SDS011;65922;50.086;8.598;2023-11-19T05:29:44;1.3;;;2;;
76986;SDS011;65922;50.086;8.598;2023-11-19T05:30:44;1.4;;;2.5;;
76986;SDS011;65922;50.086;8.598;2023-11-19T05:31:44;1;;;3.8;;
76986;SDS011;65922;50.086;8.598;2023-11-19T05:32:44;0.7;;;2.1;;
76986;SDS011;65922;50.086;8.598;2023-11-19T05:33:44;1.5;;;3.3;;
76986;SDS011;65922;50.086;8.598;2023-11-19T05:34:44;1.6;;;2.7;;
76986;SDS011;65922;50.086;8.598;2023-11-19T05:35:44;0.7;;;2.7;;
76986;SDS011;65922;50.086;8.598;2023-11-19T05:36:45;1.4;;;3.2;;
76986;SDS011;65922;50.086;8.598;2023-11-19T05:37:44;1.4;;;2.5;;
76986;SDS011;65922;50.086;8.598;2023-11-19T05:38:44;0.6;;;0.6;;
76986;SDS011;65922;50.086;8.598;2023-11-19T05:39:44;1.4;;;3.2;;
76986;SDS011;65922;50.086;8.598;2023-11-19T05:40:44;0.5;;;1.6;;
76986;SDS011;65922;50.086;8.598;2023-11-19T05:41:44;0.7;;;4.3;;
76986;SDS011;65922;50.086;8.598;2023-11-19T05:42:44;1.3;;;2.8;;
76986;SDS011;65922;50.086;8.598;2023-11-19T05:43:44;1.1;;;2.7;;
76986;SDS011;65922;50.086;8.598;2023-11-19T05:44:44;1;;;1.8;;
76986;SDS011;65922;50.086;8.598;2023-11-19T05:45:44;2;;;3.9;;
76986;SDS011;65922;50.086;8.598;2023-11-19T05:46:44;0.8;;;2;;
76986;SDS011;65922;50.086;8.598;2023-11-19T05:47:44;1.2;;;3.2;;
76986;SDS011;65922;50.086;8.598;2023-11-19T05:48:44;1.4;;;3.3;;
76986;SDS011;65922;50.086;8.598;2023-11-19T05:49:44;1.4;;;4.2;;
76986;SDS011;65922;50.086;8.598;2023-11-19T05:50:44;1.8;;;2.6;;
76986;SDS011;65922;50.086;8.598;2023-11-19T05:51:44;1;;;2.6;;
76986;SDS011;65922;50.086;8.598;2023-11-19T05:52:44;1.5;;;8.7;;
76986;SDS011;65922;50.086;8.598;2023-11-19T05:53:44;0.9;;;2.8;;
76986;SDS011;65922;50.086;8.598;2023-11-19T05:54:44;2.6;;;6.6;;
76986;SDS011;65922;50.086;8.598;2023-11-19T05:55:44;2.7;;;4.1;;
76986;SDS011;65922;50.086;8.598;2023-11-19T05:56:47;1.8;;;4.3;;
76986;SDS011;65922;50.086;8.598;2023-11-19T05:57:44;1.1;;;3.5;;
76986;SDS011;65922;50.086;8.598;2023-11-19T05:58:44;1.4;;;2.5;;
76986;SDS011;65922;50.086;8.598;2023-11-19T05:59:45;1.7;;;2.8;;
76986;SDS011;65922;50.086;8.598;2023-11-19T06:00:44;4.9;;;6.1;;
76986;SDS011;65922;50.086;8.598;2023-11-19T06:01:44;1.3;;;3.1;;
76986;SDS011;65922;50.086;8.598;2023-11-19T06:02:44;1.1;;;2.1;;
76986;SDS011;65922;50.086;8.598;2023-11-19T06:03:44;0.8;;;1.3;;
76986;SDS011;65922;50.086;8.598;2023-11-19T06:04:44;0.1;;;1;;
76986;SDS011;65922;50.086;8.598;2023-11-19T06:05:44;0.5;;;0.8;;
76986;SDS011;65922;50.086;8.598;2023-11-19T06:06:44;1;;;1.6;;
76986;SDS011;65922;50.086;8.598;2023-11-19T06:07:44;0.8;;;1.9;;
76986;SDS011;65922;50.086;8.598;2023-11-19T06:08:44;0.7;;;0.9;;
76986;SDS011;65922;50.086;8.598;2023-11-19T06:09:44;0.6;;;1.1;;
76986;SDS011;65922;50.086;8.598;2023-11-19T06:10:44;0.7;;;2.5;;
76986;SDS011;65922;50.086;8.598;2023-11-19T06:11:44;1.2;;;1.6;;
76986;SDS011;65922;50.086;8.598;2023-11-19T06:12:44;0.1;;;0.7;;
76986;SDS011;65922;50.086;8.598;2023-11-19T06:13:44;1.1;;;1.7;;
76986;SDS011;65922;50.086;8.598;2023-11-19T06:14:44;0.7;;;2.4;;